sensor_id;sensor_type;location;lat;lon;timestamp;pressure;altitude;pressure_sealevel;temperature;humidity
60337;BME280;46978;50.288;28.624;2023-11-21T00:01:01;98519.12;;;-2.89;91.29
60337;BME280;46978;50.288;28.624;2023-11-21T00:02:03;98517.42;;;-2.89;91.29
60337;BME280;46978;50.288;28.624;2023-11-21T00:03:05;98517.42;;;-2.89;91.37
60337;BME280;46978;50.288;28.624;2023-11-21T00:04:07;98531.00;;;-2.88;91.36
60337;BME280;46978;50.288;28.624;2023-11-21T00:05:13;98524.23;;;-2.87;91.34
60337;BME280;46978;50.288;28.624;2023-11-21T00:06:12;98524.23;;;-2.87;91.33
60337;BME280;46978;50.288;28.624;2023-11-21T00:07:15;98530.16;;;-2.87;91.34
60337;BME280;46978;50.288;28.624;2023-11-21T00:08:17;98527.61;;;-2.87;91.37
60337;BME280;46978;50.288;28.624;2023-11-21T00:09:18;98532.69;;;-2.87;91.31
60337;BME280;46978;50.288;28.624;2023-11-21T00:10:20;98537.80;;;-2.85;91.20
60337;BME280;46978;50.288;28.624;2023-11-21T00:12:17;98532.72;;;-2.85;91.15
60337;BME280;46978;50.288;28.624;2023-11-21T00:13:19;98541.22;;;-2.85;91.12
60337;BME280;46978;50.288;28.624;2023-11-21T00:14:20;98536.98;;;-2.84;91.37
60337;BME280;46978;50.288;28.624;2023-11-21T00:15:22;98536.98;;;-2.84;91.37
60337;BME280;46978;50.288;28.624;2023-11-21T00:16:23;98542.13;;;-2.81;91.15
60337;BME280;46978;50.288;28.624;2023-11-21T00:17:25;98542.98;;;-2.81;91.16
60337;BME280;46978;50.288;28.624;2023-11-21T00:18:26;98536.24;;;-2.80;91.07
60337;BME280;46978;50.288;28.624;2023-11-21T00:19:28;98543.89;;;-2.79;90.90
60337;BME280;46978;50.288;28.624;2023-11-21T00:20:30;98544.73;;;-2.78;90.85
60337;BME280;46978;50.288;28.624;2023-11-21T00:21:31;98545.58;;;-2.78;90.76
60337;BME280;46978;50.288;28.624;2023-11-21T00:22:35;98547.31;;;-2.77;90.72
60337;BME280;46978;50.288;28.624;2023-11-21T00:23:37;98549.03;;;-2.76;90.63
60337;BME280;46978;50.288;28.624;2023-11-21T00:24:38;98553.30;;;-2.73;90.33
60337;BME280;46978;50.288;28.624;2023-11-21T00:25:40;98553.30;;;-2.73;90.33
60337;BME280;46978;50.288;28.624;2023-11-21T00:26:41;98550.80;;;-2.72;89.85
60337;BME280;46978;50.288;28.624;2023-11-21T00:27:43;98550.80;;;-2.72;89.85
60337;BME280;46978;50.288;28.624;2023-11-21T00:28:44;98555.88;;;-2.72;89.93
60337;BME280;46978;50.288;28.624;2023-11-21T00:29:46;98554.22;;;-2.71;89.83
60337;BME280;46978;50.288;28.624;2023-11-21T00:30:48;98549.98;;;-2.71;89.72
60337;BME280;46978;50.288;28.624;2023-11-21T00:31:49;98546.59;;;-2.71;89.62
60337;BME280;46978;50.288;28.624;2023-11-21T00:32:51;98556.75;;;-2.71;89.58
60337;BME280;46978;50.288;28.624;2023-11-21T00:33:53;98553.34;;;-2.72;89.80
60337;BME280;46978;50.288;28.624;2023-11-21T00:34:54;98550.83;;;-2.70;89.95
60337;BME280;46978;50.288;28.624;2023-11-21T00:35:55;98556.79;;;-2.69;90.11
60337;BME280;46978;50.288;28.624;2023-11-21T00:36:58;98549.14;;;-2.71;90.06
60337;BME280;46978;50.288;28.624;2023-11-21T00:38:00;98554.25;;;-2.69;90.00
60337;BME280;46978;50.288;28.624;2023-11-21T00:39:01;98556.79;;;-2.69;89.96
60337;BME280;46978;50.288;28.624;2023-11-21T00:40:04;98550.83;;;-2.70;89.84
60337;BME280;46978;50.288;28.624;2023-11-21T00:41:06;98549.98;;;-2.71;89.66
60337;BME280;46978;50.288;28.624;2023-11-21T00:42:08;98554.99;;;-2.74;89.32
60337;BME280;46978;50.288;28.624;2023-11-21T00:43:10;98549.88;;;-2.75;89.60
60337;BME280;46978;50.288;28.624;2023-11-21T00:44:12;98552.42;;;-2.75;89.77
60337;BME280;46978;50.288;28.624;2023-11-21T00:45:13;98543.11;;;-2.75;89.78
60337;BME280;46978;50.288;28.624;2023-11-21T00:46:15;98547.38;;;-2.74;89.75
60337;BME280;46978;50.288;28.624;2023-11-21T00:47:17;98540.58;;;-2.75;89.76
60337;BME280;46978;50.288;28.624;2023-11-21T00:48:18;98546.53;;;-2.74;89.91
60337;BME280;46978;50.288;28.624;2023-11-21T00:49:20;98541.45;;;-2.74;89.92
60337;BME280;46978;50.288;28.624;2023-11-21T00:50:22;98545.69;;;-2.73;89.94
60337;BME280;46978;50.288;28.624;2023-11-21T00:51:23;98544.02;;;-2.73;89.87
60337;BME280;46978;50.288;28.624;2023-11-21T00:52:25;98549.98;;;-2.71;89.87
60337;BME280;46978;50.288;28.624;2023-11-21T00:53:26;98540.67;;;-2.70;89.93
60337;BME280;46978;50.288;28.624;2023-11-21T00:54:28;98547.44;;;-2.71;89.84
60337;BME280;46978;50.288;28.624;2023-11-21T00:55:30;98547.44;;;-2.71;90.00
60337;BME280;46978;50.288;28.624;2023-11-21T00:56:31;98547.44;;;-2.71;90.07
60337;BME280;46978;50.288;28.624;2023-11-21T00:57:34;98551.74;;;-2.68;89.95
60337;BME280;46978;50.288;28.624;2023-11-21T00:58:35;98547.52;;;-2.67;89.87
60337;BME280;46978;50.288;28.624;2023-11-21T00:59:37;98546.70;;;-2.66;89.80
60337;BME280;46978;50.288;28.624;2023-11-21T01:00:39;98556.89;;;-2.65;89.80
60337;BME280;46978;50.288;28.624;2023-11-21T01:01:40;98558.58;;;-2.64;89.79
60337;BME280;46978;50.288;28.624;2023-11-21T01:02:43;98552.69;;;-2.63;89.90
60337;BME280;46978;50.288;28.624;2023-11-21T01:03:48;98549.30;;;-2.62;89.82
60337;BME280;46978;50.288;28.624;2023-11-21T01:04:50;98546.80;;;-2.60;89.83
60337;BME280;46978;50.288;28.624;2023-11-21T01:05:52;98539.17;;;-2.60;89.46
60337;BME280;46978;50.288;28.624;2023-11-21T01:06:54;98539.17;;;-2.60;89.46
60337;BME280;46978;50.288;28.624;2023-11-21T01:07:55;98547.70;;;-2.58;89.36
60337;BME280;46978;50.288;28.624;2023-11-21T01:08:57;98547.70;;;-2.58;89.21
60337;BME280;46978;50.288;28.624;2023-11-21T01:09:58;98548.55;;;-2.58;89.31
60337;BME280;46978;50.288;28.624;2023-11-21T01:11:01;98543.47;;;-2.58;89.31
60337;BME280;46978;50.288;28.624;2023-11-21T01:12:03;98539.23;;;-2.57;89.29
60337;BME280;46978;50.288;28.624;2023-11-21T01:13:05;98540.12;;;-2.57;89.28
60337;BME280;46978;50.288;28.624;2023-11-21T01:14:06;98537.61;;;-2.55;89.19
60337;BME280;46978;50.288;28.624;2023-11-21T01:15:08;98540.18;;;-2.54;89.03
60337;BME280;46978;50.288;28.624;2023-11-21T01:16:10;98544.38;;;-2.54;88.99
60337;BME280;46978;50.288;28.624;2023-11-21T01:17:12;98548.62;;;-2.55;88.95
60337;BME280;46978;50.288;28.624;2023-11-21T01:18:13;98549.46;;;-2.54;88.83
60337;BME280;46978;50.288;28.624;2023-11-21T01:19:15;98540.18;;;-2.54;88.82
60337;BME280;46978;50.288;28.624;2023-11-21T01:20:18;98540.18;;;-2.54;88.83
60337;BME280;46978;50.288;28.624;2023-11-21T01:21:19;98541.03;;;-2.53;88.96
60337;BME280;46978;50.288;28.624;2023-11-21T01:22:21;98541.88;;;-2.53;88.91
60337;BME280;46978;50.288;28.624;2023-11-21T01:23:23;98546.11;;;-2.53;88.88
60337;BME280;46978;50.288;28.624;2023-11-21T01:24:24;98544.45;;;-2.51;88.89
60337;BME280;46978;50.288;28.624;2023-11-21T01:25:26;98546.17;;;-2.50;88.96
60337;BME280;46978;50.288;28.624;2023-11-21T01:26:28;98547.90;;;-2.49;88.96
60337;BME280;46978;50.288;28.624;2023-11-21T01:27:30;98544.52;;;-2.48;88.97
60337;BME280;46978;50.288;28.624;2023-11-21T01:28:31;98541.94;;;-2.49;89.09
60337;BME280;46978;50.288;28.624;2023-11-21T01:29:32;98553.08;;;-2.44;88.92
60337;BME280;46978;50.288;28.624;2023-11-21T01:30:34;98552.20;;;-2.45;88.74
60337;BME280;46978;50.288;28.624;2023-11-21T01:31:36;98545.45;;;-2.44;88.69
60337;BME280;46978;50.288;28.624;2023-11-21T01:32:38;98542.06;;;-2.43;88.53
60337;BME280;46978;50.288;28.624;2023-11-21T01:33:40;98544.58;;;-2.45;88.34
60337;BME280;46978;50.288;28.624;2023-11-21T01:34:41;98544.58;;;-2.45;88.21
60337;BME280;46978;50.288;28.624;2023-11-21T01:35:43;98547.08;;;-2.46;88.29
60337;BME280;46978;50.288;28.624;2023-11-21T01:36:46;98550.50;;;-2.46;88.15
60337;BME280;46978;50.288;28.624;2023-11-21T01:37:47;98550.50;;;-2.46;88.01
60337;BME280;46978;50.288;28.624;2023-11-21T01:38:49;98551.31;;;-2.47;87.91
60337;BME280;46978;50.288;28.624;2023-11-21T01:39:51;98549.59;;;-2.48;87.80
60337;BME280;46978;50.288;28.624;2023-11-21T01:40:52;98552.13;;;-2.48;87.91
60337;BME280;46978;50.288;28.624;2023-11-21T01:41:54;98559.75;;;-2.48;88.00
60337;BME280;46978;50.288;28.624;2023-11-21T01:42:56;98557.21;;;-2.48;87.97
60337;BME280;46978;50.288;28.624;2023-11-21T01:43:57;98553.83;;;-2.48;88.04
60337;BME280;46978;50.288;28.624;2023-11-21T01:44:59;98547.90;;;-2.49;88.08
60337;BME280;46978;50.288;28.624;2023-11-21T01:46:00;98555.55;;;-2.47;88.05
60337;BME280;46978;50.288;28.624;2023-11-21T01:47:02;98550.47;;;-2.47;88.15
60337;BME280;46978;50.288;28.624;2023-11-21T01:48:04;98551.31;;;-2.47;88.27
60337;BME280;46978;50.288;28.624;2023-11-21T01:49:06;98557.24;;;-2.46;88.11
60337;BME280;46978;50.288;28.624;2023-11-21T01:50:13;98553.89;;;-2.45;88.08
60337;BME280;46978;50.288;28.624;2023-11-21T01:51:14;98553.05;;;-2.46;88.15
60337;BME280;46978;50.288;28.624;2023-11-21T01:52:16;98549.66;;;-2.45;88.19
60337;BME280;46978;50.288;28.624;2023-11-21T01:53:17;98543.73;;;-2.45;88.19
60337;BME280;46978;50.288;28.624;2023-11-21T01:54:20;98553.92;;;-2.44;88.23
60337;BME280;46978;50.288;28.624;2023-11-21T01:55:22;98548.84;;;-2.44;88.23
60337;BME280;46978;50.288;28.624;2023-11-21T01:56:24;98552.23;;;-2.43;88.24
60337;BME280;46978;50.288;28.624;2023-11-21T01:57:25;98548.03;;;-2.43;88.33
60337;BME280;46978;50.288;28.624;2023-11-21T01:58:27;98551.41;;;-2.42;88.33
60337;BME280;46978;50.288;28.624;2023-11-21T01:59:33;98551.41;;;-2.42;88.30
60337;BME280;46978;50.288;28.624;2023-11-21T02:00:35;98555.65;;;-2.43;88.26
60337;BME280;46978;50.288;28.624;2023-11-21T02:01:36;98554.77;;;-2.43;88.10
60337;BME280;46978;50.288;28.624;2023-11-21T02:02:38;98551.38;;;-2.44;88.11
60337;BME280;46978;50.288;28.624;2023-11-21T02:03:39;98546.30;;;-2.44;88.18
60337;BME280;46978;50.288;28.624;2023-11-21T02:04:41;98543.73;;;-2.45;88.24
60337;BME280;46978;50.288;28.624;2023-11-21T02:05:43;98552.20;;;-2.45;88.30
60337;BME280;46978;50.288;28.624;2023-11-21T02:06:45;98547.12;;;-2.45;88.31
60337;BME280;46978;50.288;28.624;2023-11-21T02:07:47;98550.50;;;-2.46;88.23
60337;BME280;46978;50.288;28.624;2023-11-21T02:08:49;98555.55;;;-2.47;88.33
60337;BME280;46978;50.288;28.624;2023-11-21T02:09:50;98554.64;;;-2.49;88.34
60337;BME280;46978;50.288;28.624;2023-11-21T02:10:52;98552.06;;;-2.51;88.42
60337;BME280;46978;50.288;28.624;2023-11-21T02:11:54;98555.45;;;-2.52;88.48
60337;BME280;46978;50.288;28.624;2023-11-21T02:12:55;98555.42;;;-2.54;88.49
60337;BME280;46978;50.288;28.624;2023-11-21T02:13:59;98570.66;;;-2.54;88.53
60337;BME280;46978;50.288;28.624;2023-11-21T02:15:04;98565.55;;;-2.55;88.61
60337;BME280;46978;50.288;28.624;2023-11-21T02:16:07;98560.50;;;-2.54;88.66
60337;BME280;46978;50.288;28.624;2023-11-21T02:17:09;98561.31;;;-2.55;88.74
60337;BME280;46978;50.288;28.624;2023-11-21T02:18:11;98556.20;;;-2.56;88.82
60337;BME280;46978;50.288;28.624;2023-11-21T02:19:17;98555.36;;;-2.57;89.03
60337;BME280;46978;50.288;28.624;2023-11-21T02:20:18;98559.59;;;-2.56;89.10
60337;BME280;46978;50.288;28.624;2023-11-21T02:21:19;98557.08;;;-2.54;89.13
60337;BME280;46978;50.288;28.624;2023-11-21T02:22:21;98557.08;;;-2.54;89.13
60337;BME280;46978;50.288;28.624;2023-11-21T02:23:23;98560.47;;;-2.55;89.33
60337;BME280;46978;50.288;28.624;2023-11-21T02:24:24;98561.31;;;-2.55;89.29
60337;BME280;46978;50.288;28.624;2023-11-21T02:25:28;98564.67;;;-2.56;89.17
60337;BME280;46978;50.288;28.624;2023-11-21T02:26:30;98558.74;;;-2.56;88.96
60337;BME280;46978;50.288;28.624;2023-11-21T02:27:32;98558.74;;;-2.56;88.96
60337;BME280;46978;50.288;28.624;2023-11-21T02:28:34;98563.83;;;-2.56;89.14
60337;BME280;46978;50.288;28.624;2023-11-21T02:29:35;98565.52;;;-2.57;89.20
60337;BME280;46978;50.288;28.624;2023-11-21T02:30:37;98573.14;;;-2.57;89.33
60337;BME280;46978;50.288;28.624;2023-11-21T02:31:39;98573.14;;;-2.57;89.40
60337;BME280;46978;50.288;28.624;2023-11-21T02:32:41;98571.44;;;-2.56;89.50
60337;BME280;46978;50.288;28.624;2023-11-21T02:33:42;98576.52;;;-2.56;89.55
60337;BME280;46978;50.288;28.624;2023-11-21T02:34:44;98579.88;;;-2.57;89.53
60337;BME280;46978;50.288;28.624;2023-11-21T02:35:45;98571.41;;;-2.58;89.62
60337;BME280;46978;50.288;28.624;2023-11-21T02:36:47;98577.34;;;-2.57;89.62
60337;BME280;46978;50.288;28.624;2023-11-21T02:37:49;98570.56;;;-2.58;89.64
60337;BME280;46978;50.288;28.624;2023-11-21T02:38:51;98571.41;;;-2.58;89.65
60337;BME280;46978;50.288;28.624;2023-11-21T02:39:53;98573.10;;;-2.58;89.74
60337;BME280;46978;50.288;28.624;2023-11-21T02:40:57;98568.87;;;-2.58;89.92
60337;BME280;46978;50.288;28.624;2023-11-21T02:41:59;98572.19;;;-2.60;89.85
60337;BME280;46978;50.288;28.624;2023-11-21T02:43:00;98573.92;;;-2.59;89.97
60337;BME280;46978;50.288;28.624;2023-11-21T02:44:02;98571.38;;;-2.59;89.97
60337;BME280;46978;50.288;28.624;2023-11-21T02:45:05;98570.53;;;-2.60;90.05
60337;BME280;46978;50.288;28.624;2023-11-21T02:46:08;98577.27;;;-2.60;90.15
60337;BME280;46978;50.288;28.624;2023-11-21T02:47:10;98566.30;;;-2.59;90.12
60337;BME280;46978;50.288;28.624;2023-11-21T02:48:11;98572.23;;;-2.59;90.18
60337;BME280;46978;50.288;28.624;2023-11-21T02:49:13;98573.89;;;-2.61;90.06
60337;BME280;46978;50.288;28.624;2023-11-21T02:50:15;98576.45;;;-2.59;90.16
60337;BME280;46978;50.288;28.624;2023-11-21T02:51:17;98575.64;;;-2.58;90.29
60337;BME280;46978;50.288;28.624;2023-11-21T02:52:18;98573.95;;;-2.58;90.25
60337;BME280;46978;50.288;28.624;2023-11-21T02:53:20;98576.48;;;-2.58;90.19
60337;BME280;46978;50.288;28.624;2023-11-21T02:54:21;98579.03;;;-2.58;89.98
60337;BME280;46978;50.288;28.624;2023-11-21T02:55:23;98573.10;;;-2.58;89.96
60337;BME280;46978;50.288;28.624;2023-11-21T02:56:25;98570.53;;;-2.60;90.01
60337;BME280;46978;50.288;28.624;2023-11-21T02:57:27;98573.10;;;-2.58;90.14
60337;BME280;46978;50.288;28.624;2023-11-21T02:58:28;98572.19;;;-2.60;90.07
60337;BME280;46978;50.288;28.624;2023-11-21T02:59:30;98575.61;;;-2.60;89.87
60337;BME280;46978;50.288;28.624;2023-11-21T03:00:31;98581.50;;;-2.61;89.83
60337;BME280;46978;50.288;28.624;2023-11-21T03:01:33;98574.70;;;-2.63;89.88
60337;BME280;46978;50.288;28.624;2023-11-21T03:02:35;98584.86;;;-2.63;89.94
60337;BME280;46978;50.288;28.624;2023-11-21T03:03:39;98580.59;;;-2.64;90.01
60337;BME280;46978;50.288;28.624;2023-11-21T03:04:41;98588.21;;;-2.64;90.07
60337;BME280;46978;50.288;28.624;2023-11-21T03:05:43;98583.94;;;-2.65;90.24
60337;BME280;46978;50.288;28.624;2023-11-21T03:06:44;98583.94;;;-2.65;90.31
60337;BME280;46978;50.288;28.624;2023-11-21T03:07:46;98594.95;;;-2.66;90.37
60337;BME280;46978;50.288;28.624;2023-11-21T03:08:48;98592.41;;;-2.66;90.49
60337;BME280;46978;50.288;28.624;2023-11-21T03:09:49;98583.91;;;-2.67;90.52
60337;BME280;46978;50.288;28.624;2023-11-21T03:10:51;98590.68;;;-2.67;90.56
60337;BME280;46978;50.288;28.624;2023-11-21T03:11:53;98594.03;;;-2.68;90.62
60337;BME280;46978;50.288;28.624;2023-11-21T03:12:55;98591.53;;;-2.67;90.64
60337;BME280;46978;50.288;28.624;2023-11-21T03:13:56;98595.77;;;-2.67;90.59
60337;BME280;46978;50.288;28.624;2023-11-21T03:14:58;98590.68;;;-2.67;90.52
60337;BME280;46978;50.288;28.624;2023-11-21T03:15:59;98595.77;;;-2.67;90.54
60337;BME280;46978;50.288;28.624;2023-11-21T03:17:01;98594.95;;;-2.66;90.61
60337;BME280;46978;50.288;28.624;2023-11-21T03:18:03;98592.41;;;-2.66;90.59
60337;BME280;46978;50.288;28.624;2023-11-21T03:19:04;98594.10;;;-2.65;90.57
60337;BME280;46978;50.288;28.624;2023-11-21T03:20:08;98589.87;;;-2.66;90.45
60337;BME280;46978;50.288;28.624;2023-11-21T03:21:10;98587.33;;;-2.66;90.71
60337;BME280;46978;50.288;28.624;2023-11-21T03:22:11;98587.33;;;-2.66;90.71
60337;BME280;46978;50.288;28.624;2023-11-21T03:23:13;98591.56;;;-2.65;90.64
60337;BME280;46978;50.288;28.624;2023-11-21T03:24:15;98589.91;;;-2.65;90.58
60337;BME280;46978;50.288;28.624;2023-11-21T03:25:17;98590.72;;;-2.66;90.61
60337;BME280;46978;50.288;28.624;2023-11-21T03:26:19;98589.87;;;-2.66;90.53
60337;BME280;46978;50.288;28.624;2023-11-21T03:27:20;98579.58;;;-2.73;90.53
60337;BME280;46978;50.288;28.624;2023-11-21T03:28:22;98592.41;;;-2.66;90.69
60337;BME280;46978;50.288;28.624;2023-11-21T03:29:23;98599.99;;;-2.68;90.76
60337;BME280;46978;50.288;28.624;2023-11-21T03:30:25;98597.45;;;-2.68;90.80
60337;BME280;46978;50.288;28.624;2023-11-21T03:31:27;98594.88;;;-2.69;90.68
60337;BME280;46978;50.288;28.624;2023-11-21T03:32:28;98600.77;;;-2.71;90.71
60337;BME280;46978;50.288;28.624;2023-11-21T03:33:30;98597.34;;;-2.73;90.74
60337;BME280;46978;50.288;28.624;2023-11-21T03:34:31;98597.34;;;-2.73;90.81
60337;BME280;46978;50.288;28.624;2023-11-21T03:35:33;98595.62;;;-2.74;90.84
60337;BME280;46978;50.288;28.624;2023-11-21T03:36:35;98599.81;;;-2.76;90.95
60337;BME280;46978;50.288;28.624;2023-11-21T03:37:36;98604.90;;;-2.76;91.06
60337;BME280;46978;50.288;28.624;2023-11-21T03:38:38;98606.56;;;-2.76;91.19
60337;BME280;46978;50.288;28.624;2023-11-21T03:39:39;98605.74;;;-2.75;91.20
60337;BME280;46978;50.288;28.624;2023-11-21T03:40:41;98608.25;;;-2.77;91.25
60337;BME280;46978;50.288;28.624;2023-11-21T03:41:43;98610.75;;;-2.78;91.33
60337;BME280;46978;50.288;28.624;2023-11-21T03:42:44;98609.91;;;-2.79;91.38
60337;BME280;46978;50.288;28.624;2023-11-21T03:43:46;98613.33;;;-2.77;91.55
60337;BME280;46978;50.288;28.624;2023-11-21T03:44:47;98604.86;;;-2.77;91.63
60337;BME280;46978;50.288;28.624;2023-11-21T03:45:49;98607.40;;;-2.77;91.60
60337;BME280;46978;50.288;28.624;2023-11-21T03:46:50;98612.45;;;-2.79;91.63
60337;BME280;46978;50.288;28.624;2023-11-21T03:47:52;98607.37;;;-2.79;91.72
60337;BME280;46978;50.288;28.624;2023-11-21T03:48:53;98605.67;;;-2.78;91.80
60337;BME280;46978;50.288;28.624;2023-11-21T03:49:55;98607.33;;;-2.80;91.82
60337;BME280;46978;50.288;28.624;2023-11-21T03:50:57;98608.18;;;-2.80;91.79
60337;BME280;46978;50.288;28.624;2023-11-21T03:51:59;98606.45;;;-2.81;91.82
60337;BME280;46978;50.288;28.624;2023-11-21T03:53:00;98613.19;;;-2.83;91.90
60337;BME280;46978;50.288;28.624;2023-11-21T03:54:02;98602.99;;;-2.84;91.90
60337;BME280;46978;50.288;28.624;2023-11-21T03:55:04;98614.84;;;-2.85;91.97
60337;BME280;46978;50.288;28.624;2023-11-21T03:56:07;98613.15;;;-2.84;92.10
60337;BME280;46978;50.288;28.624;2023-11-21T03:57:09;98613.11;;;-2.86;92.21
60337;BME280;46978;50.288;28.624;2023-11-21T03:58:11;98606.31;;;-2.87;92.25
60337;BME280;46978;50.288;28.624;2023-11-21T03:59:12;98598.69;;;-2.87;92.34
60337;BME280;46978;50.288;28.624;2023-11-21T04:00:15;98606.31;;;-2.87;92.41
60337;BME280;46978;50.288;28.624;2023-11-21T04:01:22;98606.27;;;-2.89;92.47
60337;BME280;46978;50.288;28.624;2023-11-21T04:02:23;98603.73;;;-2.89;92.52
60337;BME280;46978;50.288;28.624;2023-11-21T04:03:25;98611.35;;;-2.89;92.63
60337;BME280;46978;50.288;28.624;2023-11-21T04:04:26;98606.27;;;-2.89;92.64
60337;BME280;46978;50.288;28.624;2023-11-21T04:05:28;98607.16;;;-2.88;92.70
60337;BME280;46978;50.288;28.624;2023-11-21T04:06:30;98609.69;;;-2.88;92.71
60337;BME280;46978;50.288;28.624;2023-11-21T04:07:32;98609.69;;;-2.88;92.71
60337;BME280;46978;50.288;28.624;2023-11-21T04:08:33;98609.69;;;-2.88;92.72
60337;BME280;46978;50.288;28.624;2023-11-21T04:09:35;98613.89;;;-2.89;92.77
60337;BME280;46978;50.288;28.624;2023-11-21T04:10:36;98609.69;;;-2.88;92.89
60337;BME280;46978;50.288;28.624;2023-11-21T04:11:38;98613.92;;;-2.87;93.00
60337;BME280;46978;50.288;28.624;2023-11-21T04:12:40;98607.19;;;-2.86;93.06
60337;BME280;46978;50.288;28.624;2023-11-21T04:13:41;98608.00;;;-2.87;93.05
60337;BME280;46978;50.288;28.624;2023-11-21T04:14:43;98619.00;;;-2.87;92.96
60337;BME280;46978;50.288;28.624;2023-11-21T04:15:44;98617.34;;;-2.86;93.05
60337;BME280;46978;50.288;28.624;2023-11-21T04:16:46;98609.73;;;-2.86;93.06
60337;BME280;46978;50.288;28.624;2023-11-21T04:19:04;98613.36;;;-2.75;93.25
60337;BME280;46978;50.288;28.624;2023-11-21T04:20:07;98625.00;;;-2.85;93.29
60337;BME280;46978;50.288;28.624;2023-11-21T04:21:09;98624.16;;;-2.84;93.35
60337;BME280;46978;50.288;28.624;2023-11-21T04:22:11;98620.73;;;-2.86;93.26
60337;BME280;46978;50.288;28.624;2023-11-21T04:23:12;98627.53;;;-2.85;93.36
60337;BME280;46978;50.288;28.624;2023-11-21T04:24:14;98621.58;;;-2.85;93.50
60337;BME280;46978;50.288;28.624;2023-11-21T04:25:16;98626.69;;;-2.84;93.63
60337;BME280;46978;50.288;28.624;2023-11-21T04:26:18;98622.50;;;-2.83;93.67
60337;BME280;46978;50.288;28.624;2023-11-21T04:27:19;98622.53;;;-2.82;93.68
60337;BME280;46978;50.288;28.624;2023-11-21T04:28:21;98630.15;;;-2.82;93.63
60337;BME280;46978;50.288;28.624;2023-11-21T04:29:23;98624.19;;;-2.82;93.56
60337;BME280;46978;50.288;28.624;2023-11-21T04:30:25;98621.61;;;-2.84;93.50
60337;BME280;46978;50.288;28.624;2023-11-21T04:31:26;98622.45;;;-2.85;93.61
60337;BME280;46978;50.288;28.624;2023-11-21T04:32:28;98627.53;;;-2.85;93.62
60337;BME280;46978;50.288;28.624;2023-11-21T04:33:29;98628.34;;;-2.86;93.60
60337;BME280;46978;50.288;28.624;2023-11-21T04:34:31;98628.31;;;-2.87;93.69
60337;BME280;46978;50.288;28.624;2023-11-21T04:35:32;98628.31;;;-2.87;93.72
60337;BME280;46978;50.288;28.624;2023-11-21T04:36:34;98632.55;;;-2.88;93.72
60337;BME280;46978;50.288;28.624;2023-11-21T04:37:36;98631.66;;;-2.89;93.85
60337;BME280;46978;50.288;28.624;2023-11-21T04:38:38;98627.46;;;-2.88;93.90
60337;BME280;46978;50.288;28.624;2023-11-21T04:39:39;98631.66;;;-2.89;93.94
60337;BME280;46978;50.288;28.624;2023-11-21T04:40:41;98636.73;;;-2.89;93.97
60337;BME280;46978;50.288;28.624;2023-11-21T04:41:43;98629.97;;;-2.90;94.03
60337;BME280;46978;50.288;28.624;2023-11-21T04:42:44;98635.89;;;-2.89;94.08
60337;BME280;46978;50.288;28.624;2023-11-21T04:43:46;98636.70;;;-2.90;94.13
60337;BME280;46978;50.288;28.624;2023-11-21T04:44:48;98634.20;;;-2.89;94.19
60337;BME280;46978;50.288;28.624;2023-11-21T04:45:50;98630.81;;;-2.89;94.10
60337;BME280;46978;50.288;28.624;2023-11-21T04:46:52;98634.20;;;-2.89;94.13
60337;BME280;46978;50.288;28.624;2023-11-21T04:47:53;98636.73;;;-2.89;94.19
60337;BME280;46978;50.288;28.624;2023-11-21T04:48:55;98631.63;;;-2.90;94.20
60337;BME280;46978;50.288;28.624;2023-11-21T04:49:57;98635.92;;;-2.87;94.30
60337;BME280;46978;50.288;28.624;2023-11-21T04:50:58;98634.23;;;-2.87;94.34
60337;BME280;46978;50.288;28.624;2023-11-21T04:52:00;98637.62;;;-2.88;94.33
60337;BME280;46978;50.288;28.624;2023-11-21T04:53:02;98639.31;;;-2.87;94.44
60337;BME280;46978;50.288;28.624;2023-11-21T04:54:04;98635.97;;;-2.86;94.41
60337;BME280;46978;50.288;28.624;2023-11-21T04:55:06;98638.50;;;-2.86;94.49
60337;BME280;46978;50.288;28.624;2023-11-21T04:56:09;98640.23;;;-2.85;94.59
60337;BME280;46978;50.288;28.624;2023-11-21T04:57:11;98641.08;;;-2.84;94.58
60337;BME280;46978;50.288;28.624;2023-11-21T04:58:12;98637.69;;;-2.85;94.58
60337;BME280;46978;50.288;28.624;2023-11-21T04:59:14;98642.77;;;-2.85;94.61
60337;BME280;46978;50.288;28.624;2023-11-21T05:00:17;98638.50;;;-2.86;94.59
60337;BME280;46978;50.288;28.624;2023-11-21T05:01:19;98642.73;;;-2.86;94.62
60337;BME280;46978;50.288;28.624;2023-11-21T05:02:20;98637.66;;;-2.86;94.73
60337;BME280;46978;50.288;28.624;2023-11-21T05:03:22;98649.50;;;-2.85;94.88
60337;BME280;46978;50.288;28.624;2023-11-21T05:04:23;98642.77;;;-2.85;94.90
60337;BME280;46978;50.288;28.624;2023-11-21T05:05:25;98648.69;;;-2.84;94.97
60337;BME280;46978;50.288;28.624;2023-11-21T05:06:27;98648.69;;;-2.84;94.97
60337;BME280;46978;50.288;28.624;2023-11-21T05:07:28;98647.00;;;-2.84;95.10
60337;BME280;46978;50.288;28.624;2023-11-21T05:08:30;98648.73;;;-2.83;95.16
60337;BME280;46978;50.288;28.624;2023-11-21T05:09:31;98652.95;;;-2.83;95.27
60337;BME280;46978;50.288;28.624;2023-11-21T05:10:33;98646.23;;;-2.81;95.30
60337;BME280;46978;50.288;28.624;2023-11-21T05:11:35;98652.11;;;-2.82;95.41
60337;BME280;46978;50.288;28.624;2023-11-21T05:12:37;98651.27;;;-2.83;95.41
60337;BME280;46978;50.288;28.624;2023-11-21T05:13:38;98653.00;;;-2.82;95.46
60337;BME280;46978;50.288;28.624;2023-11-21T05:14:40;98648.73;;;-2.83;95.44
60337;BME280;46978;50.288;28.624;2023-11-21T05:15:42;98658.92;;;-2.81;95.52
60337;BME280;46978;50.288;28.624;2023-11-21T05:16:44;98657.23;;;-2.81;95.53
60337;BME280;46978;50.288;28.624;2023-11-21T05:17:45;98657.23;;;-2.81;95.53
60337;BME280;46978;50.288;28.624;2023-11-21T05:18:47;98657.23;;;-2.81;95.76
60337;BME280;46978;50.288;28.624;2023-11-21T05:19:49;98656.42;;;-2.80;95.82
60337;BME280;46978;50.288;28.624;2023-11-21T05:20:50;98660.69;;;-2.79;95.84
60337;BME280;46978;50.288;28.624;2023-11-21T05:21:52;98662.38;;;-2.78;95.94
60337;BME280;46978;50.288;28.624;2023-11-21T05:22:54;98656.45;;;-2.78;95.85
60337;BME280;46978;50.288;28.624;2023-11-21T05:23:55;98657.30;;;-2.78;95.90
60337;BME280;46978;50.288;28.624;2023-11-21T05:24:57;98658.19;;;-2.77;95.92
60337;BME280;46978;50.288;28.624;2023-11-21T05:25:58;98661.57;;;-2.77;95.99